sensor_id;sensor_type;location;lat;lon;timestamp;P1;durP1;ratioP1;P2;durP2;ratioP2
67516;SDS011;68821;59.134;37.894;2023-06-04T00:00:53;22.75;;;8.93;;
67516;SDS011;68821;59.134;37.894;2023-06-04T00:03:19;22.00;;;11.23;;
67516;SDS011;68821;59.134;37.894;2023-06-04T00:05:46;38.33;;;17.88;;
67516;SDS011;68821;59.134;37.894;2023-06-04T00:08:12;35.53;;;13.48;;
67516;SDS011;68821;59.134;37.894;2023-06-04T00:10:39;27.52;;;9.98;;
67516;SDS011;68821;59.134;37.894;2023-06-04T00:13:05;17.40;;;6.60;;
67516;SDS011;68821;59.134;37.894;2023-06-04T00:15:32;13.88;;;5.15;;
67516;SDS011;68821;59.134;37.894;2023-06-04T00:17:58;8.25;;;3.10;;
67516;SDS011;68821;59.134;37.894;2023-06-04T00:20:24;9.63;;;2.90;;
67516;SDS011;68821;59.134;37.894;2023-06-04T00:22:50;11.07;;;3.53;;
67516;SDS011;68821;59.134;37.894;2023-06-04T00:25:17;15.05;;;4.65;;
67516;SDS011;68821;59.134;37.894;2023-06-04T00:27:43;18.42;;;7.13;;
67516;SDS011;68821;59.134;37.894;2023-06-04T00:30:09;11.10;;;2.95;;
67516;SDS011;68821;59.134;37.894;2023-06-04T00:32:36;10.70;;;3.33;;
67516;SDS011;68821;59.134;37.894;2023-06-04T00:35:02;15.35;;;5.70;;
67516;SDS011;68821;59.134;37.894;2023-06-04T00:37:29;14.57;;;4.60;;
67516;SDS011;68821;59.134;37.894;2023-06-04T00:39:55;8.57;;;3.75;;
67516;SDS011;68821;59.134;37.894;2023-06-04T00:42:21;14.18;;;5.05;;
67516;SDS011;68821;59.134;37.894;2023-06-04T00:44:48;13.95;;;5.85;;
67516;SDS011;68821;59.134;37.894;2023-06-04T00:47:14;17.10;;;6.70;;
67516;SDS011;68821;59.134;37.894;2023-06-04T00:52:08;40.38;;;24.45;;
67516;SDS011;68821;59.134;37.894;2023-06-04T00:57:02;21.58;;;11.48;;
67516;SDS011;68821;59.134;37.894;2023-06-04T00:59:30;21.17;;;11.13;;
67516;SDS011;68821;59.134;37.894;2023-06-04T01:04:44;11.00;;;3.95;;
67516;SDS011;68821;59.134;37.894;2023-06-04T01:07:19;11.77;;;2.88;;
67516;SDS011;68821;59.134;37.894;2023-06-04T01:09:47;9.40;;;2.83;;
67516;SDS011;68821;59.134;37.894;2023-06-04T01:12:13;8.38;;;2.35;;
67516;SDS011;68821;59.134;37.894;2023-06-04T01:14:39;10.48;;;2.80;;
67516;SDS011;68821;59.134;37.894;2023-06-04T01:17:11;8.07;;;2.38;;
67516;SDS011;68821;59.134;37.894;2023-06-04T01:23:04;12.43;;;2.75;;
67516;SDS011;68821;59.134;37.894;2023-06-04T01:25:11;6.13;;;2.10;;
67516;SDS011;68821;59.134;37.894;2023-06-04T01:27:46;8.40;;;2.75;;
67516;SDS011;68821;59.134;37.894;2023-06-04T01:30:15;7.03;;;2.75;;
67516;SDS011;68821;59.134;37.894;2023-06-04T01:32:42;10.43;;;2.50;;
67516;SDS011;68821;59.134;37.894;2023-06-04T01:35:09;11.50;;;3.25;;
67516;SDS011;68821;59.134;37.894;2023-06-04T01:37:37;10.52;;;3.20;;
67516;SDS011;68821;59.134;37.894;2023-06-04T01:40:03;13.45;;;3.95;;
67516;SDS011;68821;59.134;37.894;2023-06-04T01:44:56;7.53;;;1.85;;
67516;SDS011;68821;59.134;37.894;2023-06-04T01:47:22;6.90;;;2.20;;
67516;SDS011;68821;59.134;37.894;2023-06-04T01:49:48;10.10;;;1.70;;
67516;SDS011;68821;59.134;37.894;2023-06-04T01:52:15;10.48;;;2.25;;
67516;SDS011;68821;59.134;37.894;2023-06-04T01:54:41;9.45;;;2.03;;
67516;SDS011;68821;59.134;37.894;2023-06-04T01:57:08;8.20;;;1.90;;
67516;SDS011;68821;59.134;37.894;2023-06-04T01:59:37;16.08;;;1.73;;
67516;SDS011;68821;59.134;37.894;2023-06-04T02:02:04;7.95;;;2.45;;
67516;SDS011;68821;59.134;37.894;2023-06-04T02:04:30;13.88;;;1.90;;
67516;SDS011;68821;59.134;37.894;2023-06-04T02:06:57;10.20;;;1.50;;
67516;SDS011;68821;59.134;37.894;2023-06-04T02:09:25;8.90;;;2.70;;
67516;SDS011;68821;59.134;37.894;2023-06-04T02:11:51;16.77;;;3.03;;
67516;SDS011;68821;59.134;37.894;2023-06-04T02:14:17;10.32;;;2.05;;
67516;SDS011;68821;59.134;37.894;2023-06-04T02:16:44;14.50;;;2.13;;
67516;SDS011;68821;59.134;37.894;2023-06-04T02:19:10;15.70;;;2.65;;
67516;SDS011;68821;59.134;37.894;2023-06-04T02:21:38;11.07;;;2.00;;
67516;SDS011;68821;59.134;37.894;2023-06-04T02:24:04;15.57;;;2.05;;
67516;SDS011;68821;59.134;37.894;2023-06-04T02:26:34;6.13;;;1.50;;
67516;SDS011;68821;59.134;37.894;2023-06-04T02:29:00;7.13;;;1.80;;
67516;SDS011;68821;59.134;37.894;2023-06-04T02:31:26;13.10;;;2.60;;
67516;SDS011;68821;59.134;37.894;2023-06-04T02:33:53;16.83;;;1.88;;
67516;SDS011;68821;59.134;37.894;2023-06-04T02:36:19;14.98;;;3.28;;
67516;SDS011;68821;59.134;37.894;2023-06-04T02:38:45;24.52;;;2.33;;
67516;SDS011;68821;59.134;37.894;2023-06-04T02:41:12;17.80;;;2.17;;
67516;SDS011;68821;59.134;37.894;2023-06-04T02:43:41;10.43;;;1.80;;
67516;SDS011;68821;59.134;37.894;2023-06-04T02:46:07;5.10;;;1.15;;
67516;SDS011;68821;59.134;37.894;2023-06-04T02:48:33;14.25;;;1.67;;
67516;SDS011;68821;59.134;37.894;2023-06-04T02:51:00;10.82;;;1.50;;
67516;SDS011;68821;59.134;37.894;2023-06-04T02:53:26;5.07;;;1.23;;
67516;SDS011;68821;59.134;37.894;2023-06-04T02:55:52;10.65;;;1.35;;
67516;SDS011;68821;59.134;37.894;2023-06-04T02:58:18;5.72;;;1.20;;
67516;SDS011;68821;59.134;37.894;2023-06-04T03:00:47;7.28;;;1.25;;
67516;SDS011;68821;59.134;37.894;2023-06-04T03:03:13;10.45;;;1.83;;
67516;SDS011;68821;59.134;37.894;2023-06-04T03:05:40;11.15;;;2.15;;
67516;SDS011;68821;59.134;37.894;2023-06-04T03:08:09;14.07;;;2.33;;
67516;SDS011;68821;59.134;37.894;2023-06-04T03:10:35;21.80;;;2.33;;
67516;SDS011;68821;59.134;37.894;2023-06-04T03:13:01;22.17;;;2.75;;
67516;SDS011;68821;59.134;37.894;2023-06-04T03:15:28;13.52;;;2.40;;
67516;SDS011;68821;59.134;37.894;2023-06-04T03:17:54;9.48;;;1.48;;
67516;SDS011;68821;59.134;37.894;2023-06-04T03:20:20;5.75;;;1.42;;
67516;SDS011;68821;59.134;37.894;2023-06-04T03:22:50;10.55;;;1.30;;
67516;SDS011;68821;59.134;37.894;2023-06-04T03:25:17;5.47;;;1.10;;
67516;SDS011;68821;59.134;37.894;2023-06-04T03:27:43;4.72;;;1.15;;
67516;SDS011;68821;59.134;37.894;2023-06-04T03:30:10;5.88;;;0.90;;
67516;SDS011;68821;59.134;37.894;2023-06-04T03:32:36;2.72;;;0.80;;
67516;SDS011;68821;59.134;37.894;2023-06-04T03:35:02;6.03;;;1.13;;
67516;SDS011;68821;59.134;37.894;2023-06-04T03:37:29;2.33;;;0.70;;
67516;SDS011;68821;59.134;37.894;2023-06-04T03:39:55;3.75;;;1.20;;
67516;SDS011;68821;59.134;37.894;2023-06-04T03:42:22;1.58;;;0.57;;
67516;SDS011;68821;59.134;37.894;2023-06-04T03:44:48;4.53;;;1.05;;
67516;SDS011;68821;59.134;37.894;2023-06-04T03:47:14;2.55;;;0.70;;
67516;SDS011;68821;59.134;37.894;2023-06-04T03:49:40;1.38;;;0.65;;
67516;SDS011;68821;59.134;37.894;2023-06-04T03:52:06;1.38;;;0.50;;
67516;SDS011;68821;59.134;37.894;2023-06-04T03:54:32;2.08;;;0.70;;
67516;SDS011;68821;59.134;37.894;2023-06-04T03:56:59;1.92;;;0.70;;
67516;SDS011;68821;59.134;37.894;2023-06-04T03:59:25;5.25;;;1.15;;
67516;SDS011;68821;59.134;37.894;2023-06-04T04:01:52;2.45;;;0.80;;
67516;SDS011;68821;59.134;37.894;2023-06-04T04:04:18;1.25;;;0.50;;
67516;SDS011;68821;59.134;37.894;2023-06-04T04:06:44;1.70;;;0.80;;
67516;SDS011;68821;59.134;37.894;2023-06-04T04:09:10;3.13;;;0.80;;
67516;SDS011;68821;59.134;37.894;2023-06-04T04:11:36;2.75;;;0.88;;
67516;SDS011;68821;59.134;37.894;2023-06-04T04:14:03;2.08;;;0.80;;
67516;SDS011;68821;59.134;37.894;2023-06-04T04:16:29;1.75;;;0.73;;
67516;SDS011;68821;59.134;37.894;2023-06-04T04:18:55;3.35;;;0.70;;
67516;SDS011;68821;59.134;37.894;2023-06-04T04:21:21;2.08;;;0.80;;
67516;SDS011;68821;59.134;37.894;2023-06-04T04:23:49;1.77;;;0.60;;
67516;SDS011;68821;59.134;37.894;2023-06-04T04:26:16;0.98;;;0.50;;
67516;SDS011;68821;59.134;37.894;2023-06-04T04:28:42;1.92;;;0.75;;
67516;SDS011;68821;59.134;37.894;2023-06-04T04:31:09;2.60;;;0.70;;
67516;SDS011;68821;59.134;37.894;2023-06-04T04:33:36;2.13;;;0.82;;
67516;SDS011;68821;59.134;37.894;2023-06-04T04:36:05;1.02;;;0.57;;
67516;SDS011;68821;59.134;37.894;2023-06-04T04:38:38;1.98;;;0.75;;
67516;SDS011;68821;59.134;37.894;2023-06-04T04:41:04;2.95;;;1.35;;
67516;SDS011;68821;59.134;37.894;2023-06-04T04:43:31;3.70;;;1.13;;
67516;SDS011;68821;59.134;37.894;2023-06-04T04:45:58;3.20;;;1.00;;
67516;SDS011;68821;59.134;37.894;2023-06-04T04:48:25;2.10;;;0.90;;
67516;SDS011;68821;59.134;37.894;2023-06-04T04:50:54;2.08;;;0.75;;
67516;SDS011;68821;59.134;37.894;2023-06-04T04:53:20;3.15;;;0.88;;
67516;SDS011;68821;59.134;37.894;2023-06-04T04:55:47;1.27;;;0.57;;
67516;SDS011;68821;59.134;37.894;2023-06-04T04:58:13;2.00;;;0.77;;
67516;SDS011;68821;59.134;37.894;2023-06-04T05:03:06;1.90;;;0.90;;
67516;SDS011;68821;59.134;37.894;2023-06-04T05:05:33;1.80;;;0.70;;
67516;SDS011;68821;59.134;37.894;2023-06-04T05:07:59;3.65;;;0.75;;
67516;SDS011;68821;59.134;37.894;2023-06-04T05:10:25;2.08;;;0.80;;
67516;SDS011;68821;59.134;37.894;2023-06-04T05:12:54;2.10;;;0.80;;
67516;SDS011;68821;59.134;37.894;2023-06-04T05:15:22;2.63;;;0.80;;
67516;SDS011;68821;59.134;37.894;2023-06-04T05:17:48;3.40;;;0.90;;
67516;SDS011;68821;59.134;37.894;2023-06-04T05:20:14;1.98;;;0.75;;
67516;SDS011;68821;59.134;37.894;2023-06-04T05:22:41;2.08;;;0.90;;
67516;SDS011;68821;59.134;37.894;2023-06-04T05:25:08;4.28;;;1.33;;
67516;SDS011;68821;59.134;37.894;2023-06-04T05:27:35;1.80;;;0.80;;
67516;SDS011;68821;59.134;37.894;2023-06-04T05:30:01;2.60;;;1.00;;
67516;SDS011;68821;59.134;37.894;2023-06-04T05:32:28;1.45;;;0.73;;
67516;SDS011;68821;59.134;37.894;2023-06-04T05:34:56;1.25;;;0.70;;
67516;SDS011;68821;59.134;37.894;2023-06-04T05:37:23;2.22;;;0.82;;
67516;SDS011;68821;59.134;37.894;2023-06-04T05:39:49;2.50;;;0.80;;
67516;SDS011;68821;59.134;37.894;2023-06-04T05:42:15;2.75;;;0.93;;
67516;SDS011;68821;59.134;37.894;2023-06-04T05:44:41;2.47;;;0.90;;
67516;SDS011;68821;59.134;37.894;2023-06-04T05:47:07;3.85;;;0.75;;
67516;SDS011;68821;59.134;37.894;2023-06-04T05:49:34;2.55;;;0.90;;
67516;SDS011;68821;59.134;37.894;2023-06-04T05:52:00;2.35;;;0.98;;
67516;SDS011;68821;59.134;37.894;2023-06-04T05:54:26;1.75;;;0.90;;
67516;SDS011;68821;59.134;37.894;2023-06-04T05:56:54;1.75;;;0.70;;
67516;SDS011;68821;59.134;37.894;2023-06-04T05:59:20;3.00;;;1.00;;
67516;SDS011;68821;59.134;37.894;2023-06-04T06:01:46;3.70;;;1.10;;
67516;SDS011;68821;59.134;37.894;2023-06-04T06:04:14;2.45;;;1.00;;
67516;SDS011;68821;59.134;37.894;2023-06-04T06:06:41;2.63;;;1.00;;
67516;SDS011;68821;59.134;37.894;2023-06-04T06:09:09;4.28;;;1.20;;
67516;SDS011;68821;59.134;37.894;2023-06-04T06:11:36;2.83;;;1.20;;
67516;SDS011;68821;59.134;37.894;2023-06-04T06:14:02;2.63;;;1.08;;
67516;SDS011;68821;59.134;37.894;2023-06-04T06:16:28;4.75;;;2.03;;
67516;SDS011;68821;59.134;37.894;2023-06-04T06:18:55;4.93;;;1.33;;
67516;SDS011;68821;59.134;37.894;2023-06-04T06:21:21;2.53;;;0.90;;
67516;SDS011;68821;59.134;37.894;2023-06-04T06:23:48;2.97;;;1.00;;
67516;SDS011;68821;59.134;37.894;2023-06-04T06:26:14;2.30;;;0.98;;
67516;SDS011;68821;59.134;37.894;2023-06-04T06:28:41;2.55;;;0.90;;
67516;SDS011;68821;59.134;37.894;2023-06-04T06:31:08;2.22;;;0.93;;
67516;SDS011;68821;59.134;37.894;2023-06-04T06:33:34;1.63;;;0.80;;
67516;SDS011;68821;59.134;37.894;2023-06-04T06:36:00;1.58;;;0.68;;
67516;SDS011;68821;59.134;37.894;2023-06-04T06:38:26;6.70;;;2.75;;
67516;SDS011;68821;59.134;37.894;2023-06-04T06:40:53;3.92;;;1.20;;
67516;SDS011;68821;59.134;37.894;2023-06-04T06:43:19;3.17;;;0.90;;
67516;SDS011;68821;59.134;37.894;2023-06-04T06:45:45;3.55;;;1.20;;
67516;SDS011;68821;59.134;37.894;2023-06-04T06:48:11;3.00;;;0.93;;
67516;SDS011;68821;59.134;37.894;2023-06-04T06:50:38;1.58;;;0.75;;
67516;SDS011;68821;59.134;37.894;2023-06-04T06:53:04;4.10;;;1.25;;
67516;SDS011;68821;59.134;37.894;2023-06-04T06:55:30;1.27;;;0.57;;
67516;SDS011;68821;59.134;37.894;2023-06-04T06:57:56;2.85;;;0.90;;
67516;SDS011;68821;59.134;37.894;2023-06-04T07:00:22;3.50;;;0.80;;
67516;SDS011;68821;59.134;37.894;2023-06-04T07:02:49;2.63;;;0.82;;
67516;SDS011;68821;59.134;37.894;2023-06-04T07:05:15;1.75;;;0.73;;
67516;SDS011;68821;59.134;37.894;2023-06-04T07:07:43;3.30;;;0.75;;
67516;SDS011;68821;59.134;37.894;2023-06-04T07:10:09;2.67;;;0.70;;
67516;SDS011;68821;59.134;37.894;2023-06-04T07:12:36;2.95;;;0.60;;
67516;SDS011;68821;59.134;37.894;2023-06-04T07:15:02;2.88;;;1.00;;
67516;SDS011;68821;59.134;37.894;2023-06-04T07:17:28;2.20;;;1.02;;
67516;SDS011;68821;59.134;37.894;2023-06-04T07:19:55;3.58;;;1.33;;
67516;SDS011;68821;59.134;37.894;2023-06-04T07:22:21;1.67;;;0.70;;
67516;SDS011;68821;59.134;37.894;2023-06-04T07:24:47;2.45;;;0.90;;
67516;SDS011;68821;59.134;37.894;2023-06-04T07:27:13;3.92;;;1.10;;
67516;SDS011;68821;59.134;37.894;2023-06-04T07:29:42;5.88;;;1.20;;
67516;SDS011;68821;59.134;37.894;2023-06-04T07:32:10;4.28;;;1.20;;
67516;SDS011;68821;59.134;37.894;2023-06-04T07:34:40;4.70;;;0.80;;
67516;SDS011;68821;59.134;37.894;2023-06-04T07:37:06;4.03;;;1.15;;
67516;SDS011;68821;59.134;37.894;2023-06-04T07:39:33;2.20;;;0.70;;
67516;SDS011;68821;59.134;37.894;2023-06-04T07:41:59;7.35;;;1.15;;
67516;SDS011;68821;59.134;37.894;2023-06-04T07:44:25;5.07;;;1.00;;
67516;SDS011;68821;59.134;37.894;2023-06-04T07:46:52;2.38;;;0.90;;
67516;SDS011;68821;59.134;37.894;2023-06-04T07:49:18;2.90;;;0.90;;
67516;SDS011;68821;59.134;37.894;2023-06-04T07:51:46;4.28;;;1.02;;
67516;SDS011;68821;59.134;37.894;2023-06-04T07:54:12;2.25;;;0.90;;
67516;SDS011;68821;59.134;37.894;2023-06-04T07:56:39;4.78;;;1.00;;
67516;SDS011;68821;59.134;37.894;2023-06-04T07:59:06;3.13;;;0.80;;
67516;SDS011;68821;59.134;37.894;2023-06-04T08:01:32;3.90;;;0.90;;
67516;SDS011;68821;59.134;37.894;2023-06-04T08:03:58;6.20;;;1.13;;
67516;SDS011;68821;59.134;37.894;2023-06-04T08:06:25;2.28;;;0.80;;
67516;SDS011;68821;59.134;37.894;2023-06-04T08:08:52;3.72;;;0.80;;
67516;SDS011;68821;59.134;37.894;2023-06-04T08:11:18;1.83;;;0.80;;
67516;SDS011;68821;59.134;37.894;2023-06-04T08:13:44;7.43;;;1.00;;
67516;SDS011;68821;59.134;37.894;2023-06-04T08:16:10;2.92;;;0.80;;
67516;SDS011;68821;59.134;37.894;2023-06-04T08:18:40;1.65;;;0.55;;
67516;SDS011;68821;59.134;37.894;2023-06-04T08:21:10;5.07;;;0.95;;
67516;SDS011;68821;59.134;37.894;2023-06-04T08:23:36;2.58;;;0.85;;
67516;SDS011;68821;59.134;37.894;2023-06-04T08:26:02;7.97;;;0.90;;
67516;SDS011;68821;59.134;37.894;2023-06-04T08:28:28;6.72;;;1.63;;
67516;SDS011;68821;59.134;37.894;2023-06-04T08:30:55;3.25;;;0.80;;
67516;SDS011;68821;59.134;37.894;2023-06-04T08:33:21;1.85;;;0.80;;
67516;SDS011;68821;59.134;37.894;2023-06-04T08:35:47;3.05;;;1.00;;
67516;SDS011;68821;59.134;37.894;2023-06-04T08:38:12;4.15;;;0.98;;
67516;SDS011;68821;59.134;37.894;2023-06-04T08:40:38;2.28;;;0.80;;
67516;SDS011;68821;59.134;37.894;2023-06-04T08:43:04;3.90;;;0.70;;
67516;SDS011;68821;59.134;37.894;2023-06-04T08:45:32;2.70;;;0.75;;
67516;SDS011;68821;59.134;37.894;2023-06-04T08:48:01;1.38;;;0.60;;
67516;SDS011;68821;59.134;37.894;2023-06-04T08:50:29;2.38;;;0.85;;
67516;SDS011;68821;59.134;37.894;2023-06-04T08:52:57;3.67;;;1.10;;
67516;SDS011;68821;59.134;37.894;2023-06-04T08:55:23;2.08;;;0.90;;
67516;SDS011;68821;59.134;37.894;2023-06-04T08:57:50;3.00;;;0.80;;
67516;SDS011;68821;59.134;37.894;2023-06-04T09:00:19;3.85;;;1.05;;
67516;SDS011;68821;59.134;37.894;2023-06-04T09:02:47;1.67;;;0.80;;
67516;SDS011;68821;59.134;37.894;2023-06-04T09:05:19;1.30;;;0.63;;
67516;SDS011;68821;59.134;37.894;2023-06-04T09:07:46;5.30;;;0.77;;
67516;SDS011;68821;59.134;37.894;2023-06-04T09:12:43;3.30;;;1.30;;
67516;SDS011;68821;59.134;37.894;2023-06-04T09:15:12;7.18;;;0.90;;
67516;SDS011;68821;59.134;37.894;2023-06-04T09:17:38;5.88;;;0.98;;
67516;SDS011;68821;59.134;37.894;2023-06-04T09:20:05;2.20;;;0.70;;
67516;SDS011;68821;59.134;37.894;2023-06-04T09:22:35;3.25;;;0.75;;
67516;SDS011;68821;59.134;37.894;2023-06-04T09:25:06;7.65;;;1.00;;
67516;SDS011;68821;59.134;37.894;2023-06-04T09:27:39;2.92;;;0.82;;
67516;SDS011;68821;59.134;37.894;2023-06-04T09:30:05;2.20;;;0.82;;
67516;SDS011;68821;59.134;37.894;2023-06-04T09:32:34;4.15;;;0.85;;
67516;SDS011;68821;59.134;37.894;2023-06-04T09:35:18;3.92;;;0.90;;
67516;SDS011;68821;59.134;37.894;2023-06-04T09:37:54;3.50;;;1.15;;
67516;SDS011;68821;59.134;37.894;2023-06-04T09:40:21;6.50;;;1.73;;
67516;SDS011;68821;59.134;37.894;2023-06-04T09:42:49;11.93;;;1.83;;
67516;SDS011;68821;59.134;37.894;2023-06-04T09:45:28;8.10;;;1.17;;
67516;SDS011;68821;59.134;37.894;2023-06-04T09:47:55;14.27;;;1.95;;
67516;SDS011;68821;59.134;37.894;2023-06-04T09:50:24;16.20;;;2.10;;
67516;SDS011;68821;59.134;37.894;2023-06-04T09:53:17;11.70;;;2.25;;
67516;SDS011;68821;59.134;37.894;2023-06-04T09:55:55;8.73;;;1.73;;
67516;SDS011;68821;59.134;37.894;2023-06-04T09:58:24;8.38;;;1.52;;
67516;SDS011;68821;59.134;37.894;2023-06-04T10:00:52;9.73;;;1.50;;
67516;SDS011;68821;59.134;37.894;2023-06-04T10:03:29;14.30;;;2.15;;
67516;SDS011;68821;59.134;37.894;2023-06-04T10:06:04;12.50;;;2.35;;
67516;SDS011;68821;59.134;37.894;2023-06-04T10:08:32;13.73;;;2.35;;
67516;SDS011;68821;59.134;37.894;2023-06-04T10:11:00;14.85;;;1.67;;
67516;SDS011;68821;59.134;37.894;2023-06-04T10:13:34;10.00;;;2.50;;
67516;SDS011;68821;59.134;37.894;2023-06-04T10:18:31;14.38;;;2.25;;
67516;SDS011;68821;59.134;37.894;2023-06-04T10:23:25;7.07;;;1.55;;
67516;SDS011;68821;59.134;37.894;2023-06-04T10:25:51;6.95;;;1.67;;
67516;SDS011;68821;59.134;37.894;2023-06-04T10:28:19;6.30;;;1.50;;
67516;SDS011;68821;59.134;37.894;2023-06-04T10:30:47;4.05;;;1.42;;
67516;SDS011;68821;59.134;37.894;2023-06-04T10:33:17;1.92;;;0.90;;
67516;SDS011;68821;59.134;37.894;2023-06-04T10:35:45;2.95;;;0.80;;
67516;SDS011;68821;59.134;37.894;2023-06-04T10:40:42;2.47;;;0.98;;
67516;SDS011;68821;59.134;37.894;2023-06-04T10:43:10;1.52;;;0.75;;
67516;SDS011;68821;59.134;37.894;2023-06-04T10:45:37;1.90;;;0.73;;
67516;SDS011;68821;59.134;37.894;2023-06-04T10:48:08;2.42;;;0.55;;
67516;SDS011;68821;59.134;37.894;2023-06-04T10:51:09;2.63;;;0.65;;
67516;SDS011;68821;59.134;37.894;2023-06-04T10:53:35;2.08;;;0.75;;
67516;SDS011;68821;59.134;37.894;2023-06-04T10:56:02;3.28;;;0.80;;
67516;SDS011;68821;59.134;37.894;2023-06-04T10:58:34;2.05;;;0.95;;
67516;SDS011;68821;59.134;37.894;2023-06-04T11:01:01;1.67;;;0.85;;
67516;SDS011;68821;59.134;37.894;2023-06-04T11:03:37;6.35;;;0.82;;
67516;SDS011;68821;59.134;37.894;2023-06-04T11:06:14;3.40;;;1.00;;
67516;SDS011;68821;59.134;37.894;2023-06-04T11:08:42;1.58;;;0.60;;
67516;SDS011;68821;59.134;37.894;2023-06-04T11:11:12;6.95;;;0.70;;
67516;SDS011;68821;59.134;37.894;2023-06-04T11:13:39;2.67;;;1.05;;
67516;SDS011;68821;59.134;37.894;2023-06-04T11:18:57;2.17;;;0.77;;
67516;SDS011;68821;59.134;37.894;2023-06-04T11:21:27;3.38;;;0.90;;
67516;SDS011;68821;59.134;37.894;2023-06-04T11:23:55;2.45;;;0.80;;
67516;SDS011;68821;59.134;37.894;2023-06-04T11:26:29;1.75;;;0.65;;
67516;SDS011;68821;59.134;37.894;2023-06-04T11:28:58;2.58;;;0.98;;
67516;SDS011;68821;59.134;37.894;2023-06-04T11:31:25;2.35;;;1.08;;
67516;SDS011;68821;59.134;37.894;2023-06-04T11:33:51;2.88;;;1.00;;
67516;SDS011;68821;59.134;37.894;2023-06-04T11:36:27;1.92;;;0.80;;
67516;SDS011;68821;59.134;37.894;2023-06-04T11:38:55;4.15;;;1.00;;
67516;SDS011;68821;59.134;37.894;2023-06-04T11:41:27;3.90;;;1.10;;
67516;SDS011;68821;59.134;37.894;2023-06-04T11:43:55;2.30;;;0.85;;
67516;SDS011;68821;59.134;37.894;2023-06-04T11:46:22;3.13;;;0.85;;
67516;SDS011;68821;59.134;37.894;2023-06-04T11:48:51;3.20;;;1.27;;
67516;SDS011;68821;59.134;37.894;2023-06-04T11:51:21;1.85;;;0.73;;
67516;SDS011;68821;59.134;37.894;2023-06-04T11:53:47;13.23;;;5.72;;
67516;SDS011;68821;59.134;37.894;2023-06-04T11:56:14;2.05;;;0.85;;
67516;SDS011;68821;59.134;37.894;2023-06-04T11:58:40;1.83;;;0.70;;
67516;SDS011;68821;59.134;37.894;2023-06-04T12:01:07;3.50;;;0.60;;
67516;SDS011;68821;59.134;37.894;2023-06-04T12:03:44;2.78;;;0.75;;
67516;SDS011;68821;59.134;37.894;2023-06-04T12:06:17;3.17;;;1.00;;
67516;SDS011;68821;59.134;37.894;2023-06-04T12:08:55;2.17;;;0.73;;
67516;SDS011;68821;59.134;37.894;2023-06-04T12:11:31;3.17;;;0.80;;
67516;SDS011;68821;59.134;37.894;2023-06-04T12:13:59;2.15;;;0.90;;
67516;SDS011;68821;59.134;37.894;2023-06-04T12:16:30;3.03;;;1.15;;
67516;SDS011;68821;59.134;37.894;2023-06-04T12:19:30;7.75;;;0.88;;
67516;SDS011;68821;59.134;37.894;2023-06-04T12:21:58;2.40;;;0.75;;
67516;SDS011;68821;59.134;37.894;2023-06-04T12:24:28;1.67;;;0.68;;
67516;SDS011;68821;59.134;37.894;2023-06-04T12:29:32;0.90;;;0.50;;
67516;SDS011;68821;59.134;37.894;2023-06-04T12:32:05;1.75;;;0.60;;
67516;SDS011;68821;59.134;37.894;2023-06-04T12:34:37;3.80;;;0.80;;
67516;SDS011;68821;59.134;37.894;2023-06-04T12:37:04;2.65;;;0.80;;
67516;SDS011;68821;59.134;37.894;2023-06-04T12:39:32;3.72;;;0.90;;
67516;SDS011;68821;59.134;37.894;2023-06-04T12:41:59;2.17;;;0.77;;
67516;SDS011;68821;59.134;37.894;2023-06-04T12:44:25;2.30;;;0.80;;
67516;SDS011;68821;59.134;37.894;2023-06-04T12:46:51;2.65;;;0.60;;
67516;SDS011;68821;59.134;37.894;2023-06-04T12:49:17;1.42;;;0.70;;
67516;SDS011;68821;59.134;37.894;2023-06-04T12:51:44;0.95;;;0.60;;
67516;SDS011;68821;59.134;37.894;2023-06-04T12:54:10;2.08;;;0.90;;
67516;SDS011;68821;59.134;37.894;2023-06-04T12:56:36;3.08;;;0.90;;
67516;SDS011;68821;59.134;37.894;2023-06-04T12:59:03;8.07;;;1.77;;
67516;SDS011;68821;59.134;37.894;2023-06-04T13:01:29;5.85;;;1.95;;
67516;SDS011;68821;59.134;37.894;2023-06-04T13:03:55;9.00;;;2.45;;
67516;SDS011;68821;59.134;37.894;2023-06-04T13:06:22;3.13;;;0.90;;
67516;SDS011;68821;59.134;37.894;2023-06-04T13:08:48;3.03;;;0.88;;
67516;SDS011;68821;59.134;37.894;2023-06-04T13:11:14;2.67;;;0.80;;
67516;SDS011;68821;59.134;37.894;2023-06-04T13:13:41;1.63;;;0.80;;
67516;SDS011;68821;59.134;37.894;2023-06-04T13:16:07;1.92;;;0.68;;
67516;SDS011;68821;59.134;37.894;2023-06-04T13:18:34;4.88;;;0.80;;
67516;SDS011;68821;59.134;37.894;2023-06-04T13:21:01;1.30;;;0.60;;
67516;SDS011;68821;59.134;37.894;2023-06-04T13:23:28;1.33;;;0.50;;
67516;SDS011;68821;59.134;37.894;2023-06-04T13:25:54;2.42;;;0.70;;
67516;SDS011;68821;59.134;37.894;2023-06-04T13:28:20;3.78;;;0.70;;
67516;SDS011;68821;59.134;37.894;2023-06-04T13:30:48;2.20;;;0.75;;
67516;SDS011;68821;59.134;37.894;2023-06-04T13:33:14;2.53;;;0.88;;
67516;SDS011;68821;59.134;37.894;2023-06-04T13:35:40;3.20;;;0.85;;
67516;SDS011;68821;59.134;37.894;2023-06-04T13:38:08;2.90;;;0.65;;
67516;SDS011;68821;59.134;37.894;2023-06-04T13:40:34;3.83;;;0.60;;
67516;SDS011;68821;59.134;37.894;2023-06-04T13:43:01;1.33;;;0.55;;
67516;SDS011;68821;59.134;37.894;2023-06-04T13:45:28;4.10;;;1.13;;
67516;SDS011;68821;59.134;37.894;2023-06-04T13:47:54;3.72;;;0.60;;
67516;SDS011;68821;59.134;37.894;2023-06-04T13:50:20;2.13;;;0.80;;
67516;SDS011;68821;59.134;37.894;2023-06-04T13:52:47;4.15;;;0.90;;
67516;SDS011;68821;59.134;37.894;2023-06-04T13:55:13;2.55;;;0.82;;
67516;SDS011;68821;59.134;37.894;2023-06-04T13:57:39;1.25;;;0.68;;
67516;SDS011;68821;59.134;37.894;2023-06-04T14:00:06;2.13;;;0.68;;
67516;SDS011;68821;59.134;37.894;2023-06-04T14:02:33;4.30;;;0.90;;
67516;SDS011;68821;59.134;37.894;2023-06-04T14:04:59;3.72;;;0.88;;
67516;SDS011;68821;59.134;37.894;2023-06-04T14:07:26;2.60;;;0.80;;
67516;SDS011;68821;59.134;37.894;2023-06-04T14:09:52;6.28;;;1.20;;
67516;SDS011;68821;59.134;37.894;2023-06-04T14:12:21;3.45;;;0.90;;
67516;SDS011;68821;59.134;37.894;2023-06-04T14:14:48;4.18;;;0.85;;
67516;SDS011;68821;59.134;37.894;2023-06-04T14:17:15;2.55;;;0.95;;
67516;SDS011;68821;59.134;37.894;2023-06-04T14:19:41;1.58;;;0.60;;
67516;SDS011;68821;59.134;37.894;2023-06-04T14:22:09;3.38;;;0.77;;
67516;SDS011;68821;59.134;37.894;2023-06-04T14:24:40;1.38;;;0.65;;
67516;SDS011;68821;59.134;37.894;2023-06-04T14:27:07;1.45;;;0.73;;
67516;SDS011;68821;59.134;37.894;2023-06-04T14:29:34;3.33;;;1.10;;
67516;SDS011;68821;59.134;37.894;2023-06-04T14:32:02;2.10;;;0.90;;
67516;SDS011;68821;59.134;37.894;2023-06-04T14:34:31;3.28;;;1.17;;
67516;SDS011;68821;59.134;37.894;2023-06-04T14:36:58;2.53;;;0.80;;
67516;SDS011;68821;59.134;37.894;2023-06-04T14:39:26;2.35;;;0.70;;
67516;SDS011;68821;59.134;37.894;2023-06-04T14:41:53;2.45;;;0.70;;
67516;SDS011;68821;59.134;37.894;2023-06-04T14:44:19;2.03;;;0.73;;
67516;SDS011;68821;59.134;37.894;2023-06-04T14:49:12;1.83;;;0.77;;
67516;SDS011;68821;59.134;37.894;2023-06-04T14:51:39;2.67;;;0.90;;
67516;SDS011;68821;59.134;37.894;2023-06-04T14:54:05;3.65;;;1.00;;
67516;SDS011;68821;59.134;37.894;2023-06-04T14:56:31;4.88;;;1.13;;
67516;SDS011;68821;59.134;37.894;2023-06-04T14:58:58;5.15;;;0.90;;
67516;SDS011;68821;59.134;37.894;2023-06-04T15:01:26;3.58;;;0.90;;
67516;SDS011;68821;59.134;37.894;2023-06-04T15:03:52;2.97;;;0.85;;
67516;SDS011;68821;59.134;37.894;2023-06-04T15:06:19;1.65;;;0.73;;